sensor_id;sensor_type;location;lat;lon;timestamp;P1;durP1;ratioP1;P2;durP2;ratioP2
549;SDS011;20066;48.764;9.176;2022-08-23T00:01:24;10.80;;;4.97;;
549;SDS011;20066;48.764;9.176;2022-08-23T00:03:58;6.50;;;4.20;;
549;SDS011;20066;48.764;9.176;2022-08-23T00:06:27;5.17;;;3.53;;
549;SDS011;20066;48.764;9.176;2022-08-23T00:08:55;7.43;;;3.70;;
549;SDS011;20066;48.764;9.176;2022-08-23T00:11:25;5.90;;;3.30;;
549;SDS011;20066;48.764;9.176;2022-08-23T00:13:57;7.40;;;3.80;;
549;SDS011;20066;48.764;9.176;2022-08-23T00:16:27;6.67;;;3.67;;
549;SDS011;20066;48.764;9.176;2022-08-23T00:18:55;6.90;;;4.33;;
549;SDS011;20066;48.764;9.176;2022-08-23T00:21:23;10.77;;;5.20;;
549;SDS011;20066;48.764;9.176;2022-08-23T00:23:50;7.47;;;4.37;;
549;SDS011;20066;48.764;9.176;2022-08-23T00:26:18;7.90;;;4.37;;
549;SDS011;20066;48.764;9.176;2022-08-23T00:28:48;10.57;;;5.00;;
549;SDS011;20066;48.764;9.176;2022-08-23T00:31:16;8.67;;;4.70;;
549;SDS011;20066;48.764;9.176;2022-08-23T00:33:45;13.10;;;4.80;;
549;SDS011;20066;48.764;9.176;2022-08-23T00:36:12;7.40;;;4.43;;
549;SDS011;20066;48.764;9.176;2022-08-23T00:38:40;7.37;;;4.90;;
549;SDS011;20066;48.764;9.176;2022-08-23T00:41:08;6.57;;;4.60;;
549;SDS011;20066;48.764;9.176;2022-08-23T00:43:36;7.63;;;4.60;;
549;SDS011;20066;48.764;9.176;2022-08-23T00:46:29;6.90;;;4.17;;
549;SDS011;20066;48.764;9.176;2022-08-23T00:49:24;6.40;;;4.10;;
549;SDS011;20066;48.764;9.176;2022-08-23T00:51:54;6.20;;;4.40;;
549;SDS011;20066;48.764;9.176;2022-08-23T00:54:28;10.43;;;4.70;;
549;SDS011;20066;48.764;9.176;2022-08-23T00:56:57;7.10;;;4.10;;
549;SDS011;20066;48.764;9.176;2022-08-23T00:59:28;6.70;;;3.80;;
549;SDS011;20066;48.764;9.176;2022-08-23T01:01:58;9.80;;;4.83;;
549;SDS011;20066;48.764;9.176;2022-08-23T01:04:29;7.80;;;4.10;;
549;SDS011;20066;48.764;9.176;2022-08-23T01:07:02;6.40;;;3.93;;
549;SDS011;20066;48.764;9.176;2022-08-23T01:09:34;5.33;;;3.43;;
549;SDS011;20066;48.764;9.176;2022-08-23T01:12:04;10.03;;;3.70;;
549;SDS011;20066;48.764;9.176;2022-08-23T01:14:37;6.70;;;3.77;;
549;SDS011;20066;48.764;9.176;2022-08-23T01:17:09;8.27;;;3.87;;
549;SDS011;20066;48.764;9.176;2022-08-23T01:19:43;6.90;;;3.90;;
549;SDS011;20066;48.764;9.176;2022-08-23T01:22:15;5.13;;;3.30;;
549;SDS011;20066;48.764;9.176;2022-08-23T01:24:50;6.90;;;4.10;;
549;SDS011;20066;48.764;9.176;2022-08-23T01:27:34;7.13;;;4.20;;
549;SDS011;20066;48.764;9.176;2022-08-23T01:30:03;7.70;;;4.03;;
549;SDS011;20066;48.764;9.176;2022-08-23T01:32:33;7.10;;;4.30;;
549;SDS011;20066;48.764;9.176;2022-08-23T01:35:07;9.60;;;4.33;;
549;SDS011;20066;48.764;9.176;2022-08-23T01:37:36;10.80;;;4.47;;
549;SDS011;20066;48.764;9.176;2022-08-23T01:40:06;6.33;;;3.60;;
549;SDS011;20066;48.764;9.176;2022-08-23T01:42:35;7.60;;;4.10;;
549;SDS011;20066;48.764;9.176;2022-08-23T01:45:07;9.03;;;5.20;;
549;SDS011;20066;48.764;9.176;2022-08-23T01:47:36;10.73;;;4.30;;
549;SDS011;20066;48.764;9.176;2022-08-23T01:50:06;9.73;;;4.87;;
549;SDS011;20066;48.764;9.176;2022-08-23T01:52:35;6.30;;;4.40;;
549;SDS011;20066;48.764;9.176;2022-08-23T01:55:14;9.40;;;4.80;;
549;SDS011;20066;48.764;9.176;2022-08-23T01:57:42;9.43;;;4.70;;
549;SDS011;20066;48.764;9.176;2022-08-23T02:00:14;7.97;;;4.40;;
549;SDS011;20066;48.764;9.176;2022-08-23T02:02:42;8.23;;;4.30;;
549;SDS011;20066;48.764;9.176;2022-08-23T02:05:12;7.30;;;4.40;;
549;SDS011;20066;48.764;9.176;2022-08-23T02:07:44;8.43;;;4.20;;
549;SDS011;20066;48.764;9.176;2022-08-23T02:10:13;8.53;;;4.53;;
549;SDS011;20066;48.764;9.176;2022-08-23T02:12:42;8.53;;;4.37;;
549;SDS011;20066;48.764;9.176;2022-08-23T02:15:10;8.33;;;4.87;;
549;SDS011;20066;48.764;9.176;2022-08-23T02:17:38;7.83;;;4.27;;
549;SDS011;20066;48.764;9.176;2022-08-23T02:20:06;7.93;;;4.00;;
549;SDS011;20066;48.764;9.176;2022-08-23T02:22:35;8.57;;;4.67;;
549;SDS011;20066;48.764;9.176;2022-08-23T02:25:05;10.13;;;4.93;;
549;SDS011;20066;48.764;9.176;2022-08-23T02:27:35;8.20;;;4.70;;
549;SDS011;20066;48.764;9.176;2022-08-23T02:30:09;7.27;;;5.13;;
549;SDS011;20066;48.764;9.176;2022-08-23T02:32:38;8.80;;;3.97;;
549;SDS011;20066;48.764;9.176;2022-08-23T02:35:07;8.40;;;5.00;;
549;SDS011;20066;48.764;9.176;2022-08-23T02:37:35;7.00;;;4.60;;
549;SDS011;20066;48.764;9.176;2022-08-23T02:40:04;9.90;;;4.40;;
549;SDS011;20066;48.764;9.176;2022-08-23T02:42:32;7.23;;;4.27;;
549;SDS011;20066;48.764;9.176;2022-08-23T02:45:01;8.10;;;4.70;;
549;SDS011;20066;48.764;9.176;2022-08-23T02:47:30;5.77;;;4.10;;
549;SDS011;20066;48.764;9.176;2022-08-23T02:49:57;8.37;;;4.50;;
549;SDS011;20066;48.764;9.176;2022-08-23T02:52:25;6.13;;;4.40;;
549;SDS011;20066;48.764;9.176;2022-08-23T02:54:53;8.03;;;3.53;;
549;SDS011;20066;48.764;9.176;2022-08-23T02:57:23;6.80;;;4.70;;
549;SDS011;20066;48.764;9.176;2022-08-23T02:59:52;6.10;;;4.27;;
549;SDS011;20066;48.764;9.176;2022-08-23T03:02:21;8.03;;;4.23;;
549;SDS011;20066;48.764;9.176;2022-08-23T03:04:49;5.10;;;3.87;;
549;SDS011;20066;48.764;9.176;2022-08-23T03:07:17;10.07;;;4.93;;
549;SDS011;20066;48.764;9.176;2022-08-23T03:09:44;6.30;;;4.40;;
549;SDS011;20066;48.764;9.176;2022-08-23T03:12:12;6.50;;;3.63;;
549;SDS011;20066;48.764;9.176;2022-08-23T03:14:40;13.10;;;4.40;;
549;SDS011;20066;48.764;9.176;2022-08-23T03:17:08;6.80;;;3.90;;
549;SDS011;20066;48.764;9.176;2022-08-23T03:19:37;10.43;;;4.40;;
549;SDS011;20066;48.764;9.176;2022-08-23T03:22:05;6.90;;;3.80;;
549;SDS011;20066;48.764;9.176;2022-08-23T03:24:33;5.23;;;3.87;;
549;SDS011;20066;48.764;9.176;2022-08-23T03:27:03;6.23;;;3.73;;
549;SDS011;20066;48.764;9.176;2022-08-23T03:29:32;4.80;;;3.50;;
549;SDS011;20066;48.764;9.176;2022-08-23T03:31:59;7.83;;;3.90;;
549;SDS011;20066;48.764;9.176;2022-08-23T03:34:28;6.57;;;4.17;;
549;SDS011;20066;48.764;9.176;2022-08-23T03:36:57;6.73;;;4.07;;
549;SDS011;20066;48.764;9.176;2022-08-23T03:39:25;6.30;;;4.00;;
549;SDS011;20066;48.764;9.176;2022-08-23T03:41:53;6.90;;;4.03;;
549;SDS011;20066;48.764;9.176;2022-08-23T03:44:21;7.33;;;4.37;;
549;SDS011;20066;48.764;9.176;2022-08-23T03:46:49;5.83;;;4.00;;
549;SDS011;20066;48.764;9.176;2022-08-23T03:49:17;9.90;;;4.43;;
549;SDS011;20066;48.764;9.176;2022-08-23T03:51:45;6.73;;;4.30;;
549;SDS011;20066;48.764;9.176;2022-08-23T03:54:14;6.83;;;4.27;;
549;SDS011;20066;48.764;9.176;2022-08-23T03:56:49;6.50;;;4.53;;
549;SDS011;20066;48.764;9.176;2022-08-23T03:59:18;10.13;;;4.60;;
549;SDS011;20066;48.764;9.176;2022-08-23T04:01:46;7.83;;;4.10;;
549;SDS011;20066;48.764;9.176;2022-08-23T04:04:15;5.47;;;3.63;;
549;SDS011;20066;48.764;9.176;2022-08-23T04:06:43;7.00;;;3.90;;
549;SDS011;20066;48.764;9.176;2022-08-23T04:09:11;6.50;;;4.27;;
549;SDS011;20066;48.764;9.176;2022-08-23T04:11:41;5.60;;;3.40;;
549;SDS011;20066;48.764;9.176;2022-08-23T04:14:10;6.70;;;4.10;;
549;SDS011;20066;48.764;9.176;2022-08-23T04:16:38;7.80;;;3.87;;
549;SDS011;20066;48.764;9.176;2022-08-23T04:19:06;7.00;;;4.03;;
549;SDS011;20066;48.764;9.176;2022-08-23T04:21:40;5.50;;;3.90;;
549;SDS011;20066;48.764;9.176;2022-08-23T04:24:10;7.47;;;3.93;;
549;SDS011;20066;48.764;9.176;2022-08-23T04:26:41;8.33;;;4.13;;
549;SDS011;20066;48.764;9.176;2022-08-23T04:29:11;5.30;;;4.30;;
549;SDS011;20066;48.764;9.176;2022-08-23T04:31:59;5.40;;;4.20;;
549;SDS011;20066;48.764;9.176;2022-08-23T04:34:30;7.53;;;4.20;;
549;SDS011;20066;48.764;9.176;2022-08-23T04:36:59;7.93;;;3.93;;
549;SDS011;20066;48.764;9.176;2022-08-23T04:39:28;10.63;;;4.27;;
549;SDS011;20066;48.764;9.176;2022-08-23T04:42:20;8.23;;;4.77;;
549;SDS011;20066;48.764;9.176;2022-08-23T04:44:48;6.33;;;4.50;;
549;SDS011;20066;48.764;9.176;2022-08-23T04:47:16;8.13;;;4.27;;
549;SDS011;20066;48.764;9.176;2022-08-23T04:49:45;8.50;;;4.87;;
549;SDS011;20066;48.764;9.176;2022-08-23T04:52:13;9.10;;;4.83;;
549;SDS011;20066;48.764;9.176;2022-08-23T04:54:44;9.30;;;4.13;;
549;SDS011;20066;48.764;9.176;2022-08-23T04:57:13;7.23;;;5.03;;
549;SDS011;20066;48.764;9.176;2022-08-23T04:59:43;7.90;;;4.43;;
549;SDS011;20066;48.764;9.176;2022-08-23T05:02:10;6.20;;;4.10;;
549;SDS011;20066;48.764;9.176;2022-08-23T05:04:39;6.37;;;4.70;;
549;SDS011;20066;48.764;9.176;2022-08-23T05:07:07;7.40;;;4.83;;
549;SDS011;20066;48.764;9.176;2022-08-23T05:09:35;8.63;;;4.77;;
549;SDS011;20066;48.764;9.176;2022-08-23T05:12:03;10.53;;;4.97;;
549;SDS011;20066;48.764;9.176;2022-08-23T05:14:31;7.63;;;4.30;;
549;SDS011;20066;48.764;9.176;2022-08-23T05:17:01;6.00;;;4.10;;
549;SDS011;20066;48.764;9.176;2022-08-23T05:19:29;11.37;;;5.63;;
549;SDS011;20066;48.764;9.176;2022-08-23T05:21:57;12.03;;;4.10;;
549;SDS011;20066;48.764;9.176;2022-08-23T05:24:25;7.03;;;4.53;;
549;SDS011;20066;48.764;9.176;2022-08-23T05:26:52;8.30;;;4.50;;
549;SDS011;20066;48.764;9.176;2022-08-23T05:29:20;7.53;;;5.37;;
549;SDS011;20066;48.764;9.176;2022-08-23T05:31:48;6.70;;;4.17;;
549;SDS011;20066;48.764;9.176;2022-08-23T05:34:18;8.87;;;4.57;;
549;SDS011;20066;48.764;9.176;2022-08-23T05:36:48;8.13;;;4.60;;
549;SDS011;20066;48.764;9.176;2022-08-23T05:39:21;5.90;;;4.70;;
549;SDS011;20066;48.764;9.176;2022-08-23T05:42:02;5.37;;;3.87;;
549;SDS011;20066;48.764;9.176;2022-08-23T05:44:29;7.63;;;4.47;;
549;SDS011;20066;48.764;9.176;2022-08-23T05:47:02;9.83;;;4.77;;
549;SDS011;20066;48.764;9.176;2022-08-23T05:49:37;10.63;;;5.17;;
549;SDS011;20066;48.764;9.176;2022-08-23T05:52:07;8.60;;;4.07;;
549;SDS011;20066;48.764;9.176;2022-08-23T05:54:37;6.37;;;4.37;;
549;SDS011;20066;48.764;9.176;2022-08-23T05:57:05;6.33;;;4.47;;
549;SDS011;20066;48.764;9.176;2022-08-23T05:59:33;10.07;;;4.90;;
549;SDS011;20066;48.764;9.176;2022-08-23T06:02:01;8.97;;;4.23;;
549;SDS011;20066;48.764;9.176;2022-08-23T06:04:28;12.67;;;5.00;;
549;SDS011;20066;48.764;9.176;2022-08-23T06:06:58;10.87;;;4.30;;
549;SDS011;20066;48.764;9.176;2022-08-23T06:09:25;11.50;;;4.90;;
549;SDS011;20066;48.764;9.176;2022-08-23T06:11:54;8.70;;;4.30;;
549;SDS011;20066;48.764;9.176;2022-08-23T06:14:23;12.90;;;5.07;;
549;SDS011;20066;48.764;9.176;2022-08-23T06:16:51;8.37;;;4.53;;
549;SDS011;20066;48.764;9.176;2022-08-23T06:19:22;8.87;;;4.70;;
549;SDS011;20066;48.764;9.176;2022-08-23T06:21:50;7.53;;;4.93;;
549;SDS011;20066;48.764;9.176;2022-08-23T06:24:20;8.57;;;4.50;;
549;SDS011;20066;48.764;9.176;2022-08-23T06:26:48;8.63;;;4.43;;
549;SDS011;20066;48.764;9.176;2022-08-23T06:29:17;10.80;;;4.83;;
549;SDS011;20066;48.764;9.176;2022-08-23T06:31:47;9.73;;;5.10;;
549;SDS011;20066;48.764;9.176;2022-08-23T06:34:18;9.40;;;4.67;;
549;SDS011;20066;48.764;9.176;2022-08-23T06:36:48;7.57;;;4.60;;
549;SDS011;20066;48.764;9.176;2022-08-23T06:39:20;8.67;;;4.77;;
549;SDS011;20066;48.764;9.176;2022-08-23T06:41:49;6.60;;;4.67;;
549;SDS011;20066;48.764;9.176;2022-08-23T06:44:17;7.00;;;4.70;;
549;SDS011;20066;48.764;9.176;2022-08-23T06:46:46;10.10;;;4.60;;
549;SDS011;20066;48.764;9.176;2022-08-23T06:49:14;6.80;;;4.90;;
549;SDS011;20066;48.764;9.176;2022-08-23T06:51:44;10.90;;;5.27;;
549;SDS011;20066;48.764;9.176;2022-08-23T06:54:15;11.70;;;5.37;;
549;SDS011;20066;48.764;9.176;2022-08-23T06:56:47;9.33;;;4.87;;
549;SDS011;20066;48.764;9.176;2022-08-23T06:59:15;15.17;;;4.83;;
549;SDS011;20066;48.764;9.176;2022-08-23T07:01:45;10.73;;;5.30;;
549;SDS011;20066;48.764;9.176;2022-08-23T07:04:16;8.90;;;5.17;;
549;SDS011;20066;48.764;9.176;2022-08-23T07:06:45;11.07;;;4.70;;
549;SDS011;20066;48.764;9.176;2022-08-23T07:09:13;12.20;;;4.87;;
549;SDS011;20066;48.764;9.176;2022-08-23T07:11:41;12.90;;;5.10;;
549;SDS011;20066;48.764;9.176;2022-08-23T07:14:11;13.93;;;5.57;;
549;SDS011;20066;48.764;9.176;2022-08-23T07:16:42;9.03;;;5.33;;
549;SDS011;20066;48.764;9.176;2022-08-23T07:19:14;12.33;;;5.13;;
549;SDS011;20066;48.764;9.176;2022-08-23T07:21:42;12.70;;;5.17;;
549;SDS011;20066;48.764;9.176;2022-08-23T07:24:15;15.07;;;5.37;;
549;SDS011;20066;48.764;9.176;2022-08-23T07:26:44;10.60;;;5.07;;
549;SDS011;20066;48.764;9.176;2022-08-23T07:29:15;14.90;;;5.63;;
549;SDS011;20066;48.764;9.176;2022-08-23T07:31:44;11.53;;;5.07;;
549;SDS011;20066;48.764;9.176;2022-08-23T07:34:13;17.83;;;5.43;;
549;SDS011;20066;48.764;9.176;2022-08-23T07:36:42;8.50;;;4.70;;
549;SDS011;20066;48.764;9.176;2022-08-23T07:39:12;13.80;;;5.47;;
549;SDS011;20066;48.764;9.176;2022-08-23T07:41:43;12.50;;;5.17;;
549;SDS011;20066;48.764;9.176;2022-08-23T07:44:15;10.50;;;4.47;;
549;SDS011;20066;48.764;9.176;2022-08-23T07:46:45;11.03;;;5.30;;
549;SDS011;20066;48.764;9.176;2022-08-23T07:49:14;13.30;;;5.00;;
549;SDS011;20066;48.764;9.176;2022-08-23T07:51:45;18.30;;;5.10;;
549;SDS011;20066;48.764;9.176;2022-08-23T07:54:15;11.90;;;4.60;;
549;SDS011;20066;48.764;9.176;2022-08-23T07:56:44;15.07;;;4.77;;
549;SDS011;20066;48.764;9.176;2022-08-23T07:59:12;12.07;;;5.27;;
549;SDS011;20066;48.764;9.176;2022-08-23T08:01:42;12.37;;;4.90;;
549;SDS011;20066;48.764;9.176;2022-08-23T08:04:11;8.40;;;4.40;;
549;SDS011;20066;48.764;9.176;2022-08-23T08:06:40;13.83;;;5.00;;
549;SDS011;20066;48.764;9.176;2022-08-23T08:09:09;11.77;;;4.50;;
549;SDS011;20066;48.764;9.176;2022-08-23T08:11:39;12.57;;;5.20;;
549;SDS011;20066;48.764;9.176;2022-08-23T08:14:10;9.80;;;4.60;;
549;SDS011;20066;48.764;9.176;2022-08-23T08:16:39;9.63;;;4.77;;
549;SDS011;20066;48.764;9.176;2022-08-23T08:19:11;7.60;;;4.13;;
549;SDS011;20066;48.764;9.176;2022-08-23T08:21:44;16.40;;;5.30;;
549;SDS011;20066;48.764;9.176;2022-08-23T08:24:14;13.80;;;4.60;;
549;SDS011;20066;48.764;9.176;2022-08-23T08:26:43;7.80;;;4.43;;
549;SDS011;20066;48.764;9.176;2022-08-23T08:29:12;7.40;;;3.80;;
549;SDS011;20066;48.764;9.176;2022-08-23T08:31:41;13.43;;;4.00;;
549;SDS011;20066;48.764;9.176;2022-08-23T08:34:12;6.63;;;3.70;;
549;SDS011;20066;48.764;9.176;2022-08-23T08:36:41;6.67;;;3.87;;
549;SDS011;20066;48.764;9.176;2022-08-23T08:39:11;7.23;;;3.37;;
549;SDS011;20066;48.764;9.176;2022-08-23T08:41:48;11.10;;;3.40;;
549;SDS011;20066;48.764;9.176;2022-08-23T08:44:34;6.10;;;3.10;;
549;SDS011;20066;48.764;9.176;2022-08-23T08:47:09;8.23;;;3.10;;
549;SDS011;20066;48.764;9.176;2022-08-23T08:49:43;5.83;;;2.93;;
549;SDS011;20066;48.764;9.176;2022-08-23T08:52:16;7.57;;;3.23;;
549;SDS011;20066;48.764;9.176;2022-08-23T08:54:51;9.97;;;3.43;;
549;SDS011;20066;48.764;9.176;2022-08-23T08:57:27;10.87;;;3.30;;
549;SDS011;20066;48.764;9.176;2022-08-23T08:59:59;4.90;;;3.20;;
549;SDS011;20066;48.764;9.176;2022-08-23T09:02:32;7.00;;;4.17;;
549;SDS011;20066;48.764;9.176;2022-08-23T09:05:03;8.40;;;4.30;;
549;SDS011;20066;48.764;9.176;2022-08-23T09:07:38;9.77;;;3.90;;
549;SDS011;20066;48.764;9.176;2022-08-23T09:13:24;12.83;;;4.60;;
549;SDS011;20066;48.764;9.176;2022-08-23T09:16:22;12.90;;;4.87;;
549;SDS011;20066;48.764;9.176;2022-08-23T09:18:59;7.70;;;3.93;;
549;SDS011;20066;48.764;9.176;2022-08-23T09:21:30;10.27;;;4.17;;
549;SDS011;20066;48.764;9.176;2022-08-23T09:24:06;7.30;;;3.80;;
549;SDS011;20066;48.764;9.176;2022-08-23T09:26:34;5.73;;;3.80;;
549;SDS011;20066;48.764;9.176;2022-08-23T09:29:06;6.80;;;3.40;;
549;SDS011;20066;48.764;9.176;2022-08-23T09:31:45;7.67;;;3.67;;
549;SDS011;20066;48.764;9.176;2022-08-23T09:34:19;6.50;;;2.70;;
549;SDS011;20066;48.764;9.176;2022-08-23T09:36:49;6.83;;;2.60;;
549;SDS011;20066;48.764;9.176;2022-08-23T09:39:25;9.77;;;3.20;;
549;SDS011;20066;48.764;9.176;2022-08-23T09:41:56;4.80;;;3.13;;
549;SDS011;20066;48.764;9.176;2022-08-23T09:44:35;4.90;;;3.00;;
549;SDS011;20066;48.764;9.176;2022-08-23T09:47:08;5.20;;;2.73;;
549;SDS011;20066;48.764;9.176;2022-08-23T09:49:39;4.40;;;2.43;;
549;SDS011;20066;48.764;9.176;2022-08-23T09:52:12;4.60;;;2.53;;
549;SDS011;20066;48.764;9.176;2022-08-23T09:54:56;6.67;;;3.50;;
549;SDS011;20066;48.764;9.176;2022-08-23T09:57:28;6.33;;;2.93;;
549;SDS011;20066;48.764;9.176;2022-08-23T09:59:59;4.00;;;2.43;;
549;SDS011;20066;48.764;9.176;2022-08-23T10:02:43;14.07;;;3.90;;
549;SDS011;20066;48.764;9.176;2022-08-23T10:05:17;8.20;;;2.90;;
549;SDS011;20066;48.764;9.176;2022-08-23T10:07:53;6.73;;;2.70;;
549;SDS011;20066;48.764;9.176;2022-08-23T10:10:24;9.40;;;2.63;;
549;SDS011;20066;48.764;9.176;2022-08-23T10:12:57;4.90;;;2.57;;
549;SDS011;20066;48.764;9.176;2022-08-23T10:15:31;5.30;;;3.23;;
549;SDS011;20066;48.764;9.176;2022-08-23T10:18:22;6.20;;;2.80;;
549;SDS011;20066;48.764;9.176;2022-08-23T10:21:04;9.50;;;3.00;;
549;SDS011;20066;48.764;9.176;2022-08-23T10:23:37;8.33;;;2.87;;
549;SDS011;20066;48.764;9.176;2022-08-23T10:26:19;11.30;;;3.30;;
549;SDS011;20066;48.764;9.176;2022-08-23T10:28:54;6.60;;;2.97;;
549;SDS011;20066;48.764;9.176;2022-08-23T10:31:48;6.43;;;3.00;;
549;SDS011;20066;48.764;9.176;2022-08-23T10:34:28;5.50;;;2.60;;
549;SDS011;20066;48.764;9.176;2022-08-23T10:37:22;5.10;;;2.40;;
549;SDS011;20066;48.764;9.176;2022-08-23T10:39:59;6.30;;;2.47;;
549;SDS011;20066;48.764;9.176;2022-08-23T10:42:35;11.87;;;2.90;;
549;SDS011;20066;48.764;9.176;2022-08-23T10:45:14;5.93;;;2.87;;
549;SDS011;20066;48.764;9.176;2022-08-23T10:47:53;5.07;;;2.83;;
549;SDS011;20066;48.764;9.176;2022-08-23T10:50:31;8.30;;;2.97;;
549;SDS011;20066;48.764;9.176;2022-08-23T10:53:10;5.93;;;2.43;;
549;SDS011;20066;48.764;9.176;2022-08-23T10:55:43;4.17;;;2.60;;
549;SDS011;20066;48.764;9.176;2022-08-23T10:58:30;7.10;;;3.17;;
549;SDS011;20066;48.764;9.176;2022-08-23T11:01:08;5.90;;;2.60;;
549;SDS011;20066;48.764;9.176;2022-08-23T11:03:42;6.97;;;2.90;;
549;SDS011;20066;48.764;9.176;2022-08-23T11:06:38;4.70;;;2.40;;
549;SDS011;20066;48.764;9.176;2022-08-23T11:09:29;5.57;;;2.57;;
549;SDS011;20066;48.764;9.176;2022-08-23T11:12:23;7.80;;;2.40;;
549;SDS011;20066;48.764;9.176;2022-08-23T11:17:54;5.53;;;2.87;;
549;SDS011;20066;48.764;9.176;2022-08-23T11:23:35;7.37;;;4.23;;
549;SDS011;20066;48.764;9.176;2022-08-23T11:29:36;4.00;;;2.77;;
549;SDS011;20066;48.764;9.176;2022-08-23T11:35:05;4.60;;;2.87;;
549;SDS011;20066;48.764;9.176;2022-08-23T11:43:26;6.13;;;2.57;;
549;SDS011;20066;48.764;9.176;2022-08-23T11:46:24;6.23;;;2.90;;
549;SDS011;20066;48.764;9.176;2022-08-23T11:49:13;5.70;;;2.70;;
549;SDS011;20066;48.764;9.176;2022-08-23T11:52:01;4.07;;;2.73;;
549;SDS011;20066;48.764;9.176;2022-08-23T11:55:01;4.83;;;2.67;;
549;SDS011;20066;48.764;9.176;2022-08-23T11:57:47;8.50;;;2.83;;
549;SDS011;20066;48.764;9.176;2022-08-23T12:00:24;10.90;;;3.40;;
549;SDS011;20066;48.764;9.176;2022-08-23T12:02:59;3.20;;;2.43;;
549;SDS011;20066;48.764;9.176;2022-08-23T12:05:40;5.17;;;2.87;;
549;SDS011;20066;48.764;9.176;2022-08-23T12:11:15;4.20;;;2.67;;
549;SDS011;20066;48.764;9.176;2022-08-23T12:13:46;4.90;;;2.50;;
549;SDS011;20066;48.764;9.176;2022-08-23T12:16:28;3.80;;;2.37;;
549;SDS011;20066;48.764;9.176;2022-08-23T12:19:09;6.93;;;2.67;;
549;SDS011;20066;48.764;9.176;2022-08-23T12:21:46;5.83;;;2.60;;
549;SDS011;20066;48.764;9.176;2022-08-23T12:24:17;5.00;;;2.80;;
549;SDS011;20066;48.764;9.176;2022-08-23T12:27:06;4.60;;;2.70;;
549;SDS011;20066;48.764;9.176;2022-08-23T12:29:56;3.33;;;2.33;;
549;SDS011;20066;48.764;9.176;2022-08-23T12:32:31;7.70;;;3.13;;
549;SDS011;20066;48.764;9.176;2022-08-23T12:35:11;6.53;;;2.53;;
549;SDS011;20066;48.764;9.176;2022-08-23T12:37:55;4.63;;;2.77;;
549;SDS011;20066;48.764;9.176;2022-08-23T12:40:30;6.90;;;2.80;;
549;SDS011;20066;48.764;9.176;2022-08-23T12:43:06;6.90;;;3.00;;
549;SDS011;20066;48.764;9.176;2022-08-23T12:45:43;6.13;;;3.27;;
549;SDS011;20066;48.764;9.176;2022-08-23T12:48:17;6.50;;;2.50;;
549;SDS011;20066;48.764;9.176;2022-08-23T12:50:51;5.43;;;2.50;;
549;SDS011;20066;48.764;9.176;2022-08-23T12:53:25;3.60;;;2.30;;
549;SDS011;20066;48.764;9.176;2022-08-23T12:55:58;4.20;;;2.53;;
549;SDS011;20066;48.764;9.176;2022-08-23T12:58:28;3.80;;;2.23;;
549;SDS011;20066;48.764;9.176;2022-08-23T13:00:59;4.90;;;2.50;;
549;SDS011;20066;48.764;9.176;2022-08-23T13:03:32;4.20;;;2.20;;
549;SDS011;20066;48.764;9.176;2022-08-23T13:06:03;3.60;;;2.63;;
549;SDS011;20066;48.764;9.176;2022-08-23T13:08:37;4.83;;;2.70;;
549;SDS011;20066;48.764;9.176;2022-08-23T13:11:07;4.93;;;2.40;;
549;SDS011;20066;48.764;9.176;2022-08-23T13:13:38;5.17;;;2.60;;
549;SDS011;20066;48.764;9.176;2022-08-23T13:16:21;3.00;;;2.13;;
549;SDS011;20066;48.764;9.176;2022-08-23T13:18:54;7.97;;;2.73;;
549;SDS011;20066;48.764;9.176;2022-08-23T13:21:27;7.93;;;3.30;;
549;SDS011;20066;48.764;9.176;2022-08-23T13:30:03;6.10;;;3.13;;
549;SDS011;20066;48.764;9.176;2022-08-23T13:32:47;4.77;;;2.90;;
549;SDS011;20066;48.764;9.176;2022-08-23T13:35:24;4.63;;;2.70;;
549;SDS011;20066;48.764;9.176;2022-08-23T13:37:57;5.07;;;2.57;;
549;SDS011;20066;48.764;9.176;2022-08-23T13:40:29;8.30;;;3.50;;
549;SDS011;20066;48.764;9.176;2022-08-23T13:43:00;6.00;;;3.20;;
549;SDS011;20066;48.764;9.176;2022-08-23T13:45:35;10.27;;;2.90;;
549;SDS011;20066;48.764;9.176;2022-08-23T13:48:12;6.90;;;3.47;;
549;SDS011;20066;48.764;9.176;2022-08-23T13:50:43;4.40;;;2.93;;
549;SDS011;20066;48.764;9.176;2022-08-23T13:53:12;6.13;;;2.97;;
549;SDS011;20066;48.764;9.176;2022-08-23T13:55:42;4.03;;;2.53;;
549;SDS011;20066;48.764;9.176;2022-08-23T13:58:13;6.73;;;2.47;;
549;SDS011;20066;48.764;9.176;2022-08-23T14:00:44;4.33;;;2.83;;
549;SDS011;20066;48.764;9.176;2022-08-23T14:03:21;4.53;;;2.70;;
549;SDS011;20066;48.764;9.176;2022-08-23T14:05:50;6.90;;;2.73;;
549;SDS011;20066;48.764;9.176;2022-08-23T14:08:19;5.93;;;2.50;;
549;SDS011;20066;48.764;9.176;2022-08-23T14:10:47;9.60;;;2.90;;
549;SDS011;20066;48.764;9.176;2022-08-23T14:13:16;5.80;;;2.80;;
549;SDS011;20066;48.764;9.176;2022-08-23T14:15:45;5.03;;;2.83;;
549;SDS011;20066;48.764;9.176;2022-08-23T14:18:23;3.70;;;2.47;;
549;SDS011;20066;48.764;9.176;2022-08-23T14:20:53;3.77;;;2.80;;
549;SDS011;20066;48.764;9.176;2022-08-23T14:23:21;7.10;;;2.80;;
549;SDS011;20066;48.764;9.176;2022-08-23T14:25:50;7.80;;;2.70;;
549;SDS011;20066;48.764;9.176;2022-08-23T14:28:21;5.73;;;2.47;;
549;SDS011;20066;48.764;9.176;2022-08-23T14:30:54;4.47;;;2.27;;
549;SDS011;20066;48.764;9.176;2022-08-23T14:33:22;4.57;;;2.50;;
549;SDS011;20066;48.764;9.176;2022-08-23T14:35:50;6.73;;;2.60;;
549;SDS011;20066;48.764;9.176;2022-08-23T14:38:20;3.17;;;2.23;;
549;SDS011;20066;48.764;9.176;2022-08-23T14:40:48;3.67;;;2.30;;
549;SDS011;20066;48.764;9.176;2022-08-23T14:43:23;5.33;;;2.60;;
549;SDS011;20066;48.764;9.176;2022-08-23T14:45:52;6.77;;;2.60;;
549;SDS011;20066;48.764;9.176;2022-08-23T14:48:21;3.40;;;2.50;;
549;SDS011;20066;48.764;9.176;2022-08-23T14:50:50;7.30;;;2.80;;
549;SDS011;20066;48.764;9.176;2022-08-23T14:53:21;5.10;;;2.80;;
549;SDS011;20066;48.764;9.176;2022-08-23T14:55:51;3.47;;;2.53;;
549;SDS011;20066;48.764;9.176;2022-08-23T14:58:40;5.07;;;2.70;;
549;SDS011;20066;48.764;9.176;2022-08-23T15:01:08;5.00;;;2.70;;
549;SDS011;20066;48.764;9.176;2022-08-23T15:03:37;5.03;;;2.67;;
549;SDS011;20066;48.764;9.176;2022-08-23T15:06:07;4.97;;;2.80;;
549;SDS011;20066;48.764;9.176;2022-08-23T15:08:36;4.53;;;3.07;;
549;SDS011;20066;48.764;9.176;2022-08-23T15:11:04;10.00;;;3.03;;
549;SDS011;20066;48.764;9.176;2022-08-23T15:13:54;5.23;;;2.83;;
549;SDS011;20066;48.764;9.176;2022-08-23T15:16:25;6.93;;;2.80;;
549;SDS011;20066;48.764;9.176;2022-08-23T15:18:53;5.83;;;2.87;;
549;SDS011;20066;48.764;9.176;2022-08-23T15:21:22;6.57;;;2.90;;
549;SDS011;20066;48.764;9.176;2022-08-23T15:23:51;7.80;;;3.13;;
549;SDS011;20066;48.764;9.176;2022-08-23T15:26:21;3.73;;;2.80;;
549;SDS011;20066;48.764;9.176;2022-08-23T15:28:51;12.80;;;2.80;;
549;SDS011;20066;48.764;9.176;2022-08-23T15:31:19;4.80;;;2.90;;
549;SDS011;20066;48.764;9.176;2022-08-23T15:33:47;5.50;;;2.90;;
549;SDS011;20066;48.764;9.176;2022-08-23T15:36:15;3.87;;;2.50;;
549;SDS011;20066;48.764;9.176;2022-08-23T15:38:44;5.83;;;2.97;;
549;SDS011;20066;48.764;9.176;2022-08-23T15:41:15;11.33;;;3.17;;
549;SDS011;20066;48.764;9.176;2022-08-23T15:43:45;7.70;;;3.20;;
549;SDS011;20066;48.764;9.176;2022-08-23T15:46:16;6.73;;;3.20;;
549;SDS011;20066;48.764;9.176;2022-08-23T15:48:46;4.13;;;2.90;;
549;SDS011;20066;48.764;9.176;2022-08-23T15:51:17;5.30;;;3.33;;
549;SDS011;20066;48.764;9.176;2022-08-23T15:53:45;8.77;;;3.20;;
549;SDS011;20066;48.764;9.176;2022-08-23T15:56:15;4.73;;;2.87;;
549;SDS011;20066;48.764;9.176;2022-08-23T15:58:47;5.40;;;3.10;;
549;SDS011;20066;48.764;9.176;2022-08-23T16:01:17;3.90;;;2.90;;
549;SDS011;20066;48.764;9.176;2022-08-23T16:03:50;9.90;;;3.27;;
549;SDS011;20066;48.764;9.176;2022-08-23T16:06:18;5.27;;;3.43;;
549;SDS011;20066;48.764;9.176;2022-08-23T16:08:49;4.80;;;3.20;;
549;SDS011;20066;48.764;9.176;2022-08-23T16:11:20;3.90;;;3.00;;
549;SDS011;20066;48.764;9.176;2022-08-23T16:13:48;5.83;;;3.10;;